Terminal Aerodrome Forecast
Issued by NWS Quad Cities IA IL

Home | Current Version | Previous Version | Text Only | Print | Product List | Glossary On
Versions: 1 2 3 4 5 6 7 8 9 10 11 12 13 14 15 16 17 18 19 20 21 22 23
532
FTUS43 KDVN 230541
TAFMLI
TAF
KMLI 230541Z 2306/2406 33007KT 6SM BR BKN006 OVC025
      TEMPO 2310/2314 3SM -DZ BR OVC005
     FM231600 32008KT P6SM BKN015
     FM232200 31006KT P6SM BKN025=

USA.gov is the U.S. government's official web portal to all federal, state and local government web resources and services.